Cementon, New York
Current Conditions -  °F | °C
As of 12:54 PM on Monday 24 Nov 2014 (Local Time) from KPSF Reporting Station
Broken Clouds Broken Clouds  
Wind Chill: 62°   Ceiling: 3800
Heat Index: 62°   Visibility: 10mi
Dew Point: 57°   Wind: 14mph
Humidity: 84%   Direction: 180°S
Pressure: 29.54"   Gusts: NA
Location:  42.2274°N, 73.9283°W
Report Text: KPSF 241754Z AUTO 18012KT 10SM FEW023 SCT031 BKN038 17/14 A2954 RMK AO2 SLP998 60010 T01670139 10167 20122 58026
Loading
Personal Weather Stations






























Interactive Weather Map New forecast layout! Learn more

10-Day Weather Forecast

Advertisements
Track Severe Weather on mobile